sensor_id;sensor_type;location;lat;lon;timestamp;P1;durP1;ratioP1;P2;durP2;ratioP2
38220;SDS011;24023;51.280;7.148;2023-02-12T00:00:11;41.2;;;30.4;;
38220;SDS011;24023;51.280;7.148;2023-02-12T00:05:07;39.2;;;31.9;;
38220;SDS011;24023;51.280;7.148;2023-02-12T00:10:09;39.2;;;31.9;;
38220;SDS011;24023;51.280;7.148;2023-02-12T00:15:08;35.2;;;28.7;;
38220;SDS011;24023;51.280;7.148;2023-02-12T00:20:08;35.2;;;28.7;;
38220;SDS011;24023;51.280;7.148;2023-02-12T00:25:06;41.6;;;32.6;;
38220;SDS011;24023;51.280;7.148;2023-02-12T00:30:09;41.6;;;32.6;;
38220;SDS011;24023;51.280;7.148;2023-02-12T00:35:06;39.2;;;30.3;;
38220;SDS011;24023;51.280;7.148;2023-02-12T00:40:08;39.2;;;30.3;;
38220;SDS011;24023;51.280;7.148;2023-02-12T00:45:09;39.2;;;30.3;;
38220;SDS011;24023;51.280;7.148;2023-02-12T00:50:08;38.6;;;30.1;;
38220;SDS011;24023;51.280;7.148;2023-02-12T00:55:06;38.6;;;30.1;;
38220;SDS011;24023;51.280;7.148;2023-02-12T01:00:11;38.6;;;30.1;;
38220;SDS011;24023;51.280;7.148;2023-02-12T01:05:07;32.6;;;26.5;;
38220;SDS011;24023;51.280;7.148;2023-02-12T01:10:08;32.6;;;26.5;;
38220;SDS011;24023;51.280;7.148;2023-02-12T01:15:09;34.0;;;28.0;;
38220;SDS011;24023;51.280;7.148;2023-02-12T01:20:08;34.0;;;28.0;;
38220;SDS011;24023;51.280;7.148;2023-02-12T01:25:07;35.8;;;30.1;;
38220;SDS011;24023;51.280;7.148;2023-02-12T01:30:09;35.8;;;30.1;;
38220;SDS011;24023;51.280;7.148;2023-02-12T01:35:08;33.4;;;27.1;;
38220;SDS011;24023;51.280;7.148;2023-02-12T01:40:10;33.4;;;27.1;;
38220;SDS011;24023;51.280;7.148;2023-02-12T01:45:25;35.5;;;29.3;;
38220;SDS011;24023;51.280;7.148;2023-02-12T01:50:08;35.5;;;29.3;;
38220;SDS011;24023;51.280;7.148;2023-02-12T01:55:07;30.1;;;25.0;;
38220;SDS011;24023;51.280;7.148;2023-02-12T02:00:11;30.1;;;25.0;;
38220;SDS011;24023;51.280;7.148;2023-02-12T02:05:06;32.0;;;26.3;;
38220;SDS011;24023;51.280;7.148;2023-02-12T02:10:07;32.0;;;26.3;;
38220;SDS011;24023;51.280;7.148;2023-02-12T02:15:08;35.3;;;27.3;;
38220;SDS011;24023;51.280;7.148;2023-02-12T02:20:16;35.3;;;27.3;;
38220;SDS011;24023;51.280;7.148;2023-02-12T02:30:14;36.9;;;29.1;;
38220;SDS011;24023;51.280;7.148;2023-02-12T02:35:09;34.2;;;27.9;;
38220;SDS011;24023;51.280;7.148;2023-02-12T02:40:09;34.2;;;27.9;;
38220;SDS011;24023;51.280;7.148;2023-02-12T02:45:10;32.5;;;26.6;;
38220;SDS011;24023;51.280;7.148;2023-02-12T02:50:09;32.5;;;26.6;;
38220;SDS011;24023;51.280;7.148;2023-02-12T02:55:07;43.8;;;32.8;;
38220;SDS011;24023;51.280;7.148;2023-02-12T03:00:12;43.8;;;32.8;;
38220;SDS011;24023;51.280;7.148;2023-02-12T03:05:07;41.5;;;32.0;;
38220;SDS011;24023;51.280;7.148;2023-02-12T03:10:09;41.5;;;32.0;;
38220;SDS011;24023;51.280;7.148;2023-02-12T03:15:08;39.3;;;29.6;;
38220;SDS011;24023;51.280;7.148;2023-02-12T03:20:09;39.3;;;29.6;;
38220;SDS011;24023;51.280;7.148;2023-02-12T03:25:10;38.6;;;28.3;;
38220;SDS011;24023;51.280;7.148;2023-02-12T03:30:09;38.6;;;28.3;;
38220;SDS011;24023;51.280;7.148;2023-02-12T03:35:08;39.2;;;30.0;;
38220;SDS011;24023;51.280;7.148;2023-02-12T03:40:10;39.2;;;30.0;;
38220;SDS011;24023;51.280;7.148;2023-02-12T03:45:13;39.1;;;30.3;;
38220;SDS011;24023;51.280;7.148;2023-02-12T03:50:08;39.1;;;30.3;;
38220;SDS011;24023;51.280;7.148;2023-02-12T03:55:06;39.1;;;30.3;;
38220;SDS011;24023;51.280;7.148;2023-02-12T04:00:12;40.2;;;31.4;;
38220;SDS011;24023;51.280;7.148;2023-02-12T04:05:14;39.4;;;29.1;;
38220;SDS011;24023;51.280;7.148;2023-02-12T04:10:08;39.4;;;29.1;;
38220;SDS011;24023;51.280;7.148;2023-02-12T04:15:12;36.6;;;29.3;;
38220;SDS011;24023;51.280;7.148;2023-02-12T04:20:10;36.6;;;29.3;;
38220;SDS011;24023;51.280;7.148;2023-02-12T04:25:08;37.3;;;30.3;;
38220;SDS011;24023;51.280;7.148;2023-02-12T04:30:10;37.3;;;30.3;;
38220;SDS011;24023;51.280;7.148;2023-02-12T04:35:10;35.5;;;28.6;;
38220;SDS011;24023;51.280;7.148;2023-02-12T04:40:08;35.5;;;28.6;;
38220;SDS011;24023;51.280;7.148;2023-02-12T04:45:09;37.2;;;30.8;;
38220;SDS011;24023;51.280;7.148;2023-02-12T04:50:08;37.2;;;30.8;;
38220;SDS011;24023;51.280;7.148;2023-02-12T04:55:06;38.3;;;29.1;;
38220;SDS011;24023;51.280;7.148;2023-02-12T05:00:12;38.3;;;29.1;;
38220;SDS011;24023;51.280;7.148;2023-02-12T05:05:06;32.3;;;25.5;;
38220;SDS011;24023;51.280;7.148;2023-02-12T05:10:08;32.3;;;25.5;;
38220;SDS011;24023;51.280;7.148;2023-02-12T05:15:07;35.8;;;28.3;;
38220;SDS011;24023;51.280;7.148;2023-02-12T05:20:09;35.8;;;28.3;;
38220;SDS011;24023;51.280;7.148;2023-02-12T05:25:07;35.2;;;29.2;;
38220;SDS011;24023;51.280;7.148;2023-02-12T05:30:10;35.2;;;29.2;;
38220;SDS011;24023;51.280;7.148;2023-02-12T05:35:06;35.2;;;29.2;;
38220;SDS011;24023;51.280;7.148;2023-02-12T05:40:08;36.2;;;28.8;;
38220;SDS011;24023;51.280;7.148;2023-02-12T05:45:10;37.8;;;30.6;;
38220;SDS011;24023;51.280;7.148;2023-02-12T05:50:08;37.8;;;30.6;;
38220;SDS011;24023;51.280;7.148;2023-02-12T05:55:06;36.7;;;28.6;;
38220;SDS011;24023;51.280;7.148;2023-02-12T06:00:11;36.7;;;28.6;;
38220;SDS011;24023;51.280;7.148;2023-02-12T06:05:06;42.7;;;32.8;;
38220;SDS011;24023;51.280;7.148;2023-02-12T06:10:08;42.7;;;32.8;;
38220;SDS011;24023;51.280;7.148;2023-02-12T06:15:07;37.1;;;29.9;;
38220;SDS011;24023;51.280;7.148;2023-02-12T06:20:08;37.1;;;29.9;;
38220;SDS011;24023;51.280;7.148;2023-02-12T06:25:06;36.9;;;28.4;;
38220;SDS011;24023;51.280;7.148;2023-02-12T06:30:09;36.9;;;28.4;;
38220;SDS011;24023;51.280;7.148;2023-02-12T06:35:07;34.5;;;27.0;;
38220;SDS011;24023;51.280;7.148;2023-02-12T06:40:08;34.5;;;27.0;;
38220;SDS011;24023;51.280;7.148;2023-02-12T06:45:09;33.2;;;26.7;;
38220;SDS011;24023;51.280;7.148;2023-02-12T06:50:08;33.2;;;26.7;;
38220;SDS011;24023;51.280;7.148;2023-02-12T06:55:06;33.2;;;26.7;;
38220;SDS011;24023;51.280;7.148;2023-02-12T07:00:10;32.9;;;27.3;;
38220;SDS011;24023;51.280;7.148;2023-02-12T07:05:06;32.9;;;27.3;;
38220;SDS011;24023;51.280;7.148;2023-02-12T07:10:08;32.3;;;26.7;;
38220;SDS011;24023;51.280;7.148;2023-02-12T07:15:08;32.3;;;26.4;;
38220;SDS011;24023;51.280;7.148;2023-02-12T07:20:08;32.3;;;26.4;;
38220;SDS011;24023;51.280;7.148;2023-02-12T07:25:06;30.1;;;25.7;;
38220;SDS011;24023;51.280;7.148;2023-02-12T07:30:09;30.1;;;25.7;;
38220;SDS011;24023;51.280;7.148;2023-02-12T07:35:06;33.6;;;25.3;;
38220;SDS011;24023;51.280;7.148;2023-02-12T07:40:08;33.6;;;25.3;;
38220;SDS011;24023;51.280;7.148;2023-02-12T07:45:10;37.4;;;30.1;;
38220;SDS011;24023;51.280;7.148;2023-02-12T07:50:08;37.4;;;30.1;;
38220;SDS011;24023;51.280;7.148;2023-02-12T07:55:06;41.1;;;31.5;;
38220;SDS011;24023;51.280;7.148;2023-02-12T08:00:11;41.1;;;31.5;;
38220;SDS011;24023;51.280;7.148;2023-02-12T08:05:06;37.6;;;31.2;;
38220;SDS011;24023;51.280;7.148;2023-02-12T08:10:08;37.6;;;31.2;;
38220;SDS011;24023;51.280;7.148;2023-02-12T08:15:08;39.2;;;31.5;;
38220;SDS011;24023;51.280;7.148;2023-02-12T08:20:08;39.2;;;31.5;;
38220;SDS011;24023;51.280;7.148;2023-02-12T08:25:06;38.9;;;31.9;;
38220;SDS011;24023;51.280;7.148;2023-02-12T08:30:09;38.9;;;31.9;;
38220;SDS011;24023;51.280;7.148;2023-02-12T08:35:06;38.9;;;31.9;;
38220;SDS011;24023;51.280;7.148;2023-02-12T08:40:08;40.1;;;31.8;;
38220;SDS011;24023;51.280;7.148;2023-02-12T08:45:09;37.6;;;32.1;;
38220;SDS011;24023;51.280;7.148;2023-02-12T08:50:08;37.6;;;32.1;;
38220;SDS011;24023;51.280;7.148;2023-02-12T08:55:07;39.9;;;32.3;;
38220;SDS011;24023;51.280;7.148;2023-02-12T09:00:11;39.9;;;32.3;;
38220;SDS011;24023;51.280;7.148;2023-02-12T09:05:06;36.0;;;29.6;;
38220;SDS011;24023;51.280;7.148;2023-02-12T09:10:08;36.0;;;29.6;;
38220;SDS011;24023;51.280;7.148;2023-02-12T09:15:07;40.5;;;31.2;;
38220;SDS011;24023;51.280;7.148;2023-02-12T09:20:07;40.5;;;31.2;;
38220;SDS011;24023;51.280;7.148;2023-02-12T09:25:07;38.5;;;31.5;;
38220;SDS011;24023;51.280;7.148;2023-02-12T09:30:09;38.5;;;31.5;;
38220;SDS011;24023;51.280;7.148;2023-02-12T09:35:07;35.9;;;30.7;;
38220;SDS011;24023;51.280;7.148;2023-02-12T09:40:10;35.9;;;30.7;;
38220;SDS011;24023;51.280;7.148;2023-02-12T09:45:11;36.8;;;29.0;;
38220;SDS011;24023;51.280;7.148;2023-02-12T09:50:11;36.8;;;29.0;;
38220;SDS011;24023;51.280;7.148;2023-02-12T09:55:08;34.7;;;27.3;;
38220;SDS011;24023;51.280;7.148;2023-02-12T10:00:13;34.7;;;27.3;;
38220;SDS011;24023;51.280;7.148;2023-02-12T10:05:13;20.0;;;17.2;;
38220;SDS011;24023;51.280;7.148;2023-02-12T10:10:15;20.0;;;17.2;;
38220;SDS011;24023;51.280;7.148;2023-02-12T10:15:11;24.7;;;21.8;;
38220;SDS011;24023;51.280;7.148;2023-02-12T10:20:42;24.7;;;21.8;;
38220;SDS011;24023;51.280;7.148;2023-02-12T10:25:08;27.7;;;23.1;;
38220;SDS011;24023;51.280;7.148;2023-02-12T10:30:15;27.7;;;23.1;;
38220;SDS011;24023;51.280;7.148;2023-02-12T10:35:11;25.6;;;22.9;;
38220;SDS011;24023;51.280;7.148;2023-02-12T10:40:14;25.6;;;22.9;;
38220;SDS011;24023;51.280;7.148;2023-02-12T10:45:11;24.3;;;20.6;;
38220;SDS011;24023;51.280;7.148;2023-02-12T10:50:14;24.3;;;20.6;;
38220;SDS011;24023;51.280;7.148;2023-02-12T10:55:22;24.7;;;21.2;;
38220;SDS011;24023;51.280;7.148;2023-02-12T11:00:19;24.7;;;21.2;;
38220;SDS011;24023;51.280;7.148;2023-02-12T11:05:19;26.8;;;22.8;;
38220;SDS011;24023;51.280;7.148;2023-02-12T11:10:08;26.8;;;22.8;;
38220;SDS011;24023;51.280;7.148;2023-02-12T11:15:12;24.1;;;20.9;;
38220;SDS011;24023;51.280;7.148;2023-02-12T11:20:47;24.1;;;20.9;;
38220;SDS011;24023;51.280;7.148;2023-02-12T11:25:09;25.6;;;21.3;;
38220;SDS011;24023;51.280;7.148;2023-02-12T11:30:12;25.6;;;21.3;;
38220;SDS011;24023;51.280;7.148;2023-02-12T11:35:11;26.1;;;20.9;;
38220;SDS011;24023;51.280;7.148;2023-02-12T11:40:12;26.1;;;20.9;;
38220;SDS011;24023;51.280;7.148;2023-02-12T11:45:14;27.5;;;21.8;;
38220;SDS011;24023;51.280;7.148;2023-02-12T11:50:14;27.5;;;21.8;;
38220;SDS011;24023;51.280;7.148;2023-02-12T11:55:07;26.3;;;22.4;;
38220;SDS011;24023;51.280;7.148;2023-02-12T12:00:14;26.3;;;22.4;;
38220;SDS011;24023;51.280;7.148;2023-02-12T12:05:08;26.1;;;22.2;;
38220;SDS011;24023;51.280;7.148;2023-02-12T12:10:11;26.1;;;22.2;;
38220;SDS011;24023;51.280;7.148;2023-02-12T12:20:11;26.0;;;20.5;;
38220;SDS011;24023;51.280;7.148;2023-02-12T12:25:09;26.0;;;20.5;;
38220;SDS011;24023;51.280;7.148;2023-02-12T12:30:10;26.4;;;21.3;;
38220;SDS011;24023;51.280;7.148;2023-02-12T12:35:08;26.4;;;21.3;;
38220;SDS011;24023;51.280;7.148;2023-02-12T12:40:12;26.8;;;21.3;;
38220;SDS011;24023;51.280;7.148;2023-02-12T12:45:13;26.8;;;21.3;;
38220;SDS011;24023;51.280;7.148;2023-02-12T12:50:16;26.8;;;21.3;;
38220;SDS011;24023;51.280;7.148;2023-02-12T12:55:12;26.0;;;21.5;;
38220;SDS011;24023;51.280;7.148;2023-02-12T13:00:15;26.0;;;21.5;;
38220;SDS011;24023;51.280;7.148;2023-02-12T13:05:12;24.7;;;20.7;;
38220;SDS011;24023;51.280;7.148;2023-02-12T13:10:13;24.7;;;20.7;;
38220;SDS011;24023;51.280;7.148;2023-02-12T13:15:11;24.7;;;20.7;;
38220;SDS011;24023;51.280;7.148;2023-02-12T13:20:09;25.8;;;20.9;;
38220;SDS011;24023;51.280;7.148;2023-02-12T13:25:14;25.8;;;20.9;;
38220;SDS011;24023;51.280;7.148;2023-02-12T13:30:16;25.1;;;21.3;;
38220;SDS011;24023;51.280;7.148;2023-02-12T13:35:06;25.1;;;21.3;;
38220;SDS011;24023;51.280;7.148;2023-02-12T13:40:13;25.1;;;21.3;;
38220;SDS011;24023;51.280;7.148;2023-02-12T13:45:15;25.6;;;20.4;;
38220;SDS011;24023;51.280;7.148;2023-02-12T13:50:17;25.6;;;20.4;;
38220;SDS011;24023;51.280;7.148;2023-02-12T13:55:12;25.6;;;20.4;;
38220;SDS011;24023;51.280;7.148;2023-02-12T14:00:55;24.6;;;19.9;;
38220;SDS011;24023;51.280;7.148;2023-02-12T14:05:10;24.6;;;19.9;;
38220;SDS011;24023;51.280;7.148;2023-02-12T14:10:18;23.2;;;18.8;;
38220;SDS011;24023;51.280;7.148;2023-02-12T14:15:08;25.7;;;19.9;;
38220;SDS011;24023;51.280;7.148;2023-02-12T14:20:19;25.7;;;19.9;;
38220;SDS011;24023;51.280;7.148;2023-02-12T14:25:25;23.9;;;19.0;;
38220;SDS011;24023;51.280;7.148;2023-02-12T14:30:28;23.9;;;19.0;;
38220;SDS011;24023;51.280;7.148;2023-02-12T14:35:38;21.5;;;17.2;;
38220;SDS011;24023;51.280;7.148;2023-02-12T14:40:39;21.5;;;17.2;;
38220;SDS011;24023;51.280;7.148;2023-02-12T14:45:25;19.1;;;16.1;;
38220;SDS011;24023;51.280;7.148;2023-02-12T14:50:12;19.1;;;16.1;;
38220;SDS011;24023;51.280;7.148;2023-02-12T14:55:06;20.5;;;17.4;;
38220;SDS011;24023;51.280;7.148;2023-02-12T15:00:18;20.5;;;17.4;;
38220;SDS011;24023;51.280;7.148;2023-02-12T15:05:10;17.8;;;14.8;;
38220;SDS011;24023;51.280;7.148;2023-02-12T15:10:12;17.8;;;14.8;;
38220;SDS011;24023;51.280;7.148;2023-02-12T15:15:11;15.6;;;12.6;;
38220;SDS011;24023;51.280;7.148;2023-02-12T15:20:12;15.6;;;12.6;;
38220;SDS011;24023;51.280;7.148;2023-02-12T15:25:13;15.4;;;12.2;;
38220;SDS011;24023;51.280;7.148;2023-02-12T15:30:13;15.4;;;12.2;;
38220;SDS011;24023;51.280;7.148;2023-02-12T15:35:14;16.0;;;14.3;;
38220;SDS011;24023;51.280;7.148;2023-02-12T15:40:12;16.0;;;14.3;;
38220;SDS011;24023;51.280;7.148;2023-02-12T15:45:15;18.2;;;15.0;;
38220;SDS011;24023;51.280;7.148;2023-02-12T15:50:10;18.2;;;15.0;;
38220;SDS011;24023;51.280;7.148;2023-02-12T15:55:10;16.0;;;13.3;;
38220;SDS011;24023;51.280;7.148;2023-02-12T16:00:19;16.0;;;13.3;;
38220;SDS011;24023;51.280;7.148;2023-02-12T16:05:06;313.0;;;155.9;;
38220;SDS011;24023;51.280;7.148;2023-02-12T16:10:09;313.0;;;155.9;;
38220;SDS011;24023;51.280;7.148;2023-02-12T16:15:28;25.4;;;16.1;;
38220;SDS011;24023;51.280;7.148;2023-02-12T16:20:19;25.4;;;16.1;;
38220;SDS011;24023;51.280;7.148;2023-02-12T16:25:11;24.2;;;16.8;;
38220;SDS011;24023;51.280;7.148;2023-02-12T16:30:21;24.2;;;16.8;;
38220;SDS011;24023;51.280;7.148;2023-02-12T16:35:22;17.7;;;12.9;;
38220;SDS011;24023;51.280;7.148;2023-02-12T16:40:16;17.7;;;12.9;;
38220;SDS011;24023;51.280;7.148;2023-02-12T16:45:31;17.3;;;13.3;;
38220;SDS011;24023;51.280;7.148;2023-02-12T16:50:13;17.3;;;13.3;;
38220;SDS011;24023;51.280;7.148;2023-02-12T16:55:08;17.3;;;13.3;;
38220;SDS011;24023;51.280;7.148;2023-02-12T17:00:13;18.6;;;14.1;;
38220;SDS011;24023;51.280;7.148;2023-02-12T17:05:06;16.0;;;13.6;;
38220;SDS011;24023;51.280;7.148;2023-02-12T17:10:10;16.0;;;13.6;;
38220;SDS011;24023;51.280;7.148;2023-02-12T17:15:09;10.9;;;9.7;;
38220;SDS011;24023;51.280;7.148;2023-02-12T17:20:08;10.9;;;9.7;;
38220;SDS011;24023;51.280;7.148;2023-02-12T17:25:06;8.7;;;7.5;;
38220;SDS011;24023;51.280;7.148;2023-02-12T17:30:09;8.7;;;7.5;;
38220;SDS011;24023;51.280;7.148;2023-02-12T17:35:06;13.5;;;9.9;;
38220;SDS011;24023;51.280;7.148;2023-02-12T17:40:08;13.5;;;9.9;;
38220;SDS011;24023;51.280;7.148;2023-02-12T17:45:10;8.9;;;6.6;;
38220;SDS011;24023;51.280;7.148;2023-02-12T17:50:09;8.9;;;6.6;;
38220;SDS011;24023;51.280;7.148;2023-02-12T17:55:06;6.7;;;5.3;;
38220;SDS011;24023;51.280;7.148;2023-02-12T18:00:11;6.7;;;5.3;;
38220;SDS011;24023;51.280;7.148;2023-02-12T18:05:06;6.4;;;5.7;;
38220;SDS011;24023;51.280;7.148;2023-02-12T18:10:08;6.4;;;5.7;;
38220;SDS011;24023;51.280;7.148;2023-02-12T18:15:08;6.0;;;4.9;;
38220;SDS011;24023;51.280;7.148;2023-02-12T18:20:08;6.0;;;4.9;;
38220;SDS011;24023;51.280;7.148;2023-02-12T18:25:06;6.0;;;4.9;;
38220;SDS011;24023;51.280;7.148;2023-02-12T18:30:11;6.7;;;5.5;;
38220;SDS011;24023;51.280;7.148;2023-02-12T18:35:06;8.4;;;6.6;;
38220;SDS011;24023;51.280;7.148;2023-02-12T18:40:08;8.4;;;6.6;;
38220;SDS011;24023;51.280;7.148;2023-02-12T18:45:08;6.9;;;5.8;;
38220;SDS011;24023;51.280;7.148;2023-02-12T18:50:08;6.9;;;5.8;;
38220;SDS011;24023;51.280;7.148;2023-02-12T18:55:06;6.9;;;5.8;;
38220;SDS011;24023;51.280;7.148;2023-02-12T19:00:11;8.2;;;6.5;;
38220;SDS011;24023;51.280;7.148;2023-02-12T19:05:06;8.2;;;6.5;;
38220;SDS011;24023;51.280;7.148;2023-02-12T19:10:07;7.7;;;6.9;;
38220;SDS011;24023;51.280;7.148;2023-02-12T19:15:08;7.7;;;6.9;;
38220;SDS011;24023;51.280;7.148;2023-02-12T19:20:07;8.2;;;7.0;;
38220;SDS011;24023;51.280;7.148;2023-02-12T19:25:06;57.1;;;45.6;;
38220;SDS011;24023;51.280;7.148;2023-02-12T19:30:09;57.1;;;45.6;;
38220;SDS011;24023;51.280;7.148;2023-02-12T19:35:06;9.7;;;7.8;;
38220;SDS011;24023;51.280;7.148;2023-02-12T19:40:08;9.7;;;7.8;;
38220;SDS011;24023;51.280;7.148;2023-02-12T19:45:10;8.9;;;7.7;;
38220;SDS011;24023;51.280;7.148;2023-02-12T19:50:07;8.9;;;7.7;;
38220;SDS011;24023;51.280;7.148;2023-02-12T19:55:06;8.8;;;7.9;;
38220;SDS011;24023;51.280;7.148;2023-02-12T20:00:12;8.8;;;7.9;;
38220;SDS011;24023;51.280;7.148;2023-02-12T20:05:07;8.8;;;7.9;;
38220;SDS011;24023;51.280;7.148;2023-02-12T20:10:07;8.3;;;7.2;;
38220;SDS011;24023;51.280;7.148;2023-02-12T20:15:07;8.3;;;7.2;;
38220;SDS011;24023;51.280;7.148;2023-02-12T20:20:08;8.4;;;7.0;;
38220;SDS011;24023;51.280;7.148;2023-02-12T20:25:06;8.4;;;7.0;;
38220;SDS011;24023;51.280;7.148;2023-02-12T20:30:09;8.4;;;7.0;;
38220;SDS011;24023;51.280;7.148;2023-02-12T20:35:06;7.8;;;7.0;;
38220;SDS011;24023;51.280;7.148;2023-02-12T20:40:07;7.8;;;7.0;;
38220;SDS011;24023;51.280;7.148;2023-02-12T20:45:09;8.6;;;6.9;;
38220;SDS011;24023;51.280;7.148;2023-02-12T20:50:08;8.6;;;6.9;;
38220;SDS011;24023;51.280;7.148;2023-02-12T20:55:06;5.9;;;5.3;;
38220;SDS011;24023;51.280;7.148;2023-02-12T21:00:11;5.9;;;5.3;;
38220;SDS011;24023;51.280;7.148;2023-02-12T21:05:06;6.7;;;5.8;;
38220;SDS011;24023;51.280;7.148;2023-02-12T21:10:07;6.7;;;5.8;;
38220;SDS011;24023;51.280;7.148;2023-02-12T21:15:07;5.2;;;4.7;;
38220;SDS011;24023;51.280;7.148;2023-02-12T21:20:09;5.2;;;4.7;;
38220;SDS011;24023;51.280;7.148;2023-02-12T21:25:06;5.2;;;4.7;;
38220;SDS011;24023;51.280;7.148;2023-02-12T21:30:09;5.6;;;5.0;;
38220;SDS011;24023;51.280;7.148;2023-02-12T21:35:06;5.6;;;5.0;;
38220;SDS011;24023;51.280;7.148;2023-02-12T21:40:08;6.3;;;4.8;;
38220;SDS011;24023;51.280;7.148;2023-02-12T21:45:09;6.3;;;4.8;;
38220;SDS011;24023;51.280;7.148;2023-02-12T21:50:08;6.3;;;4.8;;
38220;SDS011;24023;51.280;7.148;2023-02-12T21:55:06;6.4;;;5.7;;
38220;SDS011;24023;51.280;7.148;2023-02-12T22:00:12;6.4;;;5.7;;
38220;SDS011;24023;51.280;7.148;2023-02-12T22:05:06;6.9;;;5.9;;
38220;SDS011;24023;51.280;7.148;2023-02-12T22:10:08;6.9;;;5.9;;
38220;SDS011;24023;51.280;7.148;2023-02-12T22:15:07;6.9;;;5.9;;
38220;SDS011;24023;51.280;7.148;2023-02-12T22:20:08;7.0;;;6.0;;
38220;SDS011;24023;51.280;7.148;2023-02-12T22:25:06;7.0;;;6.0;;
38220;SDS011;24023;51.280;7.148;2023-02-12T22:30:09;8.0;;;6.0;;
38220;SDS011;24023;51.280;7.148;2023-02-12T22:35:06;8.0;;;6.0;;
38220;SDS011;24023;51.280;7.148;2023-02-12T22:40:08;8.0;;;6.0;;
38220;SDS011;24023;51.280;7.148;2023-02-12T22:45:09;8.0;;;6.6;;
38220;SDS011;24023;51.280;7.148;2023-02-12T22:50:08;8.0;;;6.6;;
38220;SDS011;24023;51.280;7.148;2023-02-12T22:55:06;6.7;;;5.9;;
38220;SDS011;24023;51.280;7.148;2023-02-12T23:00:24;6.7;;;5.9;;
38220;SDS011;24023;51.280;7.148;2023-02-12T23:05:08;6.7;;;5.6;;
38220;SDS011;24023;51.280;7.148;2023-02-12T23:10:08;6.7;;;5.6;;
38220;SDS011;24023;51.280;7.148;2023-02-12T23:15:07;6.7;;;5.6;;
38220;SDS011;24023;51.280;7.148;2023-02-12T23:20:08;7.4;;;6.3;;
38220;SDS011;24023;51.280;7.148;2023-02-12T23:25:06;7.4;;;6.3;;
38220;SDS011;24023;51.280;7.148;2023-02-12T23:30:09;7.2;;;6.2;;
38220;SDS011;24023;51.280;7.148;2023-02-12T23:35:06;7.2;;;6.2;;
38220;SDS011;24023;51.280;7.148;2023-02-12T23:40:08;7.2;;;6.2;;
38220;SDS011;24023;51.280;7.148;2023-02-12T23:45:11;6.2;;;5.6;;
38220;SDS011;24023;51.280;7.148;2023-02-12T23:50:08;6.2;;;5.6;;
38220;SDS011;24023;51.280;7.148;2023-02-12T23:55:07;5.9;;;5.3;;
